createdAt,value
2022-12-05T00:01:38.790Z,52.17
2022-12-05T00:04:11.282Z,56.53
2022-12-05T00:06:42.739Z,54.60
2022-12-05T00:09:13.669Z,54.40
2022-12-05T00:11:45.309Z,53.80
2022-12-05T00:14:16.676Z,50.60
2022-12-05T00:16:49.266Z,53.27
2022-12-05T00:19:19.333Z,52.03
2022-12-05T00:21:49.235Z,48.97
2022-12-05T00:24:20.074Z,50.80
2022-12-05T00:26:49.859Z,47.40
2022-12-05T00:29:19.727Z,47.13
2022-12-05T00:31:52.149Z,49.33
2022-12-05T00:34:22.087Z,49.87
2022-12-05T00:36:52.230Z,48.23
2022-12-05T00:39:22.064Z,44.67
2022-12-05T00:41:51.873Z,48.17
2022-12-05T00:44:22.059Z,48.57
2022-12-05T00:46:54.479Z,43.37
2022-12-05T00:49:24.278Z,45.43
2022-12-05T00:51:54.167Z,44.73
2022-12-05T00:54:23.993Z,46.17
2022-12-05T00:56:56.358Z,45.47
2022-12-05T00:59:26.487Z,45.43
2022-12-05T01:01:58.926Z,45.13
2022-12-05T01:04:28.819Z,47.17
2022-12-05T01:07:00.161Z,45.50
2022-12-05T01:09:30.134Z,47.93
2022-12-05T01:11:59.930Z,42.80
2022-12-05T01:14:29.988Z,45.53
2022-12-05T01:17:02.495Z,41.73
2022-12-05T01:19:34.601Z,42.97
2022-12-05T01:22:04.437Z,45.00
2022-12-05T01:24:34.333Z,43.90
2022-12-05T01:27:04.246Z,43.77
2022-12-05T01:29:34.180Z,44.37
2022-12-05T01:32:07.043Z,42.53
2022-12-05T01:34:37.055Z,43.50
2022-12-05T01:37:06.998Z,41.83
2022-12-05T01:39:36.879Z,43.80
2022-12-05T01:42:08.512Z,42.87
2022-12-05T01:45:04.303Z,40.97
2022-12-05T01:47:39.415Z,41.97
2022-12-05T01:50:11.048Z,40.30
2022-12-05T01:52:42.226Z,40.30
2022-12-05T01:55:16.334Z,39.03
2022-12-05T01:57:46.990Z,42.63
2022-12-05T02:00:20.716Z,42.77
2022-12-05T02:02:57.454Z,41.73
2022-12-05T02:05:31.158Z,42.77
2022-12-05T02:08:03.344Z,40.93
2022-12-05T02:10:37.820Z,40.93
2022-12-05T02:13:20.787Z,41.80
2022-12-05T02:15:57.184Z,41.93
2022-12-05T02:18:45.594Z,41.77
2022-12-05T02:21:43.929Z,41.57
2022-12-05T02:24:46.440Z,41.10
2022-12-05T02:27:42.448Z,41.20
2022-12-05T02:30:19.240Z,42.60
2022-12-05T02:33:05.356Z,41.43
2022-12-05T02:35:44.772Z,43.67
2022-12-05T02:38:21.940Z,42.10
2022-12-05T02:41:00.666Z,41.50
2022-12-05T02:43:35.527Z,41.67
2022-12-05T02:46:14.120Z,42.47
2022-12-05T02:48:46.178Z,42.30
2022-12-05T02:51:20.576Z,40.63
2022-12-05T02:53:52.936Z,42.40
2022-12-05T02:56:23.849Z,41.30
2022-12-05T02:58:56.207Z,41.93
2022-12-05T03:01:32.828Z,41.07
2022-12-05T03:04:05.564Z,41.77
2022-12-05T03:06:39.029Z,41.13
2022-12-05T03:09:14.774Z,40.80
2022-12-05T03:11:50.275Z,40.97
2022-12-05T03:14:24.067Z,40.47
2022-12-05T03:17:00.826Z,42.00
2022-12-05T03:19:35.382Z,37.80
2022-12-05T03:22:12.246Z,42.30
2022-12-05T03:24:44.314Z,39.73
2022-12-05T03:27:18.729Z,38.07
2022-12-05T03:29:54.170Z,40.30
2022-12-05T03:32:33.257Z,39.87
2022-12-05T03:35:09.676Z,38.27
2022-12-05T03:37:48.207Z,39.40
2022-12-05T03:40:29.641Z,39.00
2022-12-05T03:43:05.610Z,37.70
2022-12-05T03:45:42.684Z,39.27
2022-12-05T03:48:23.541Z,39.30
2022-12-05T03:50:56.226Z,38.20
2022-12-05T03:53:30.603Z,39.20
2022-12-05T03:56:05.035Z,37.77
2022-12-05T03:58:38.993Z,35.77
2022-12-05T04:01:11.461Z,39.00
2022-12-05T04:03:52.056Z,37.40
2022-12-05T04:06:27.813Z,37.60
2022-12-05T04:09:01.598Z,35.50
2022-12-05T04:11:37.204Z,38.20
2022-12-05T04:14:11.706Z,35.10
2022-12-05T04:16:56.492Z,35.87
2022-12-05T04:19:52.336Z,37.10
2022-12-05T04:22:20.553Z,35.43
2022-12-05T04:25:04.707Z,33.97
2022-12-05T04:27:43.238Z,35.13
2022-12-05T04:30:17.543Z,31.90
2022-12-05T04:32:51.005Z,34.30
2022-12-05T04:35:28.389Z,33.97
2022-12-05T04:38:03.535Z,32.37
2022-12-05T04:40:40.011Z,36.33
2022-12-05T04:43:12.095Z,34.03
2022-12-05T04:45:44.421Z,33.20
2022-12-05T04:48:18.974Z,34.47
2022-12-05T04:50:55.066Z,33.00
2022-12-05T04:53:27.819Z,32.70
2022-12-05T04:56:01.919Z,31.30
2022-12-05T04:58:33.737Z,32.30
2022-12-05T05:01:09.660Z,32.70
2022-12-05T05:03:45.569Z,33.30
2022-12-05T05:06:18.157Z,32.93
2022-12-05T05:08:52.663Z,31.40
2022-12-05T05:11:25.490Z,31.50
2022-12-05T05:13:55.656Z,33.13
2022-12-05T05:16:27.881Z,32.10
2022-12-05T05:18:58.010Z,31.93
2022-12-05T05:21:32.333Z,32.60
2022-12-05T05:24:02.789Z,33.73
2022-12-05T05:26:33.568Z,32.37
2022-12-05T05:29:03.512Z,33.80
2022-12-05T05:31:33.735Z,32.00
2022-12-05T05:34:09.471Z,31.00
2022-12-05T05:36:42.503Z,31.10
2022-12-05T05:39:16.670Z,31.70
2022-12-05T05:41:46.809Z,30.30
2022-12-05T05:44:16.633Z,31.30
2022-12-05T05:46:46.495Z,32.80
2022-12-05T05:49:16.358Z,31.70
2022-12-05T05:51:48.740Z,31.40
2022-12-05T05:54:18.566Z,30.80
2022-12-05T05:56:48.418Z,32.33
2022-12-05T05:59:18.236Z,30.00
2022-12-05T06:01:48.014Z,32.50
2022-12-05T06:04:17.822Z,33.00
2022-12-05T06:06:50.261Z,32.50
2022-12-05T06:09:20.549Z,32.30
2022-12-05T06:11:50.351Z,33.43
2022-12-05T06:14:20.133Z,32.47
2022-12-05T06:16:49.981Z,30.90
2022-12-05T06:19:19.824Z,30.63
2022-12-05T06:21:54.183Z,32.03
2022-12-05T06:24:24.097Z,31.87
2022-12-05T06:26:53.968Z,32.47
2022-12-05T06:29:25.795Z,33.77
2022-12-05T06:31:57.315Z,33.80
2022-12-05T06:34:27.212Z,32.60
2022-12-05T06:36:59.619Z,31.30
2022-12-05T06:39:29.627Z,31.70
2022-12-05T06:41:59.455Z,33.37
2022-12-05T06:44:29.934Z,29.90
2022-12-05T06:47:01.890Z,33.60
2022-12-05T06:49:37.632Z,34.30
2022-12-05T06:52:12.870Z,31.43
2022-12-05T06:54:42.771Z,30.47
2022-12-05T06:57:13.592Z,30.37
2022-12-05T06:59:43.611Z,31.57
2022-12-05T07:02:12.997Z,31.37
2022-12-05T07:04:42.932Z,29.60
2022-12-05T07:07:15.563Z,28.67
2022-12-05T07:09:54.775Z,26.10
2022-12-05T07:12:24.627Z,28.10
2022-12-05T07:14:54.474Z,26.90
2022-12-05T07:17:24.917Z,25.43
2022-12-05T07:19:56.570Z,25.73
2022-12-05T07:22:29.379Z,25.20
2022-12-05T07:24:59.287Z,24.70
2022-12-05T07:27:31.345Z,24.67
2022-12-05T07:30:01.628Z,25.40
2022-12-05T07:32:34.935Z,24.70
2022-12-05T07:35:04.856Z,24.93
2022-12-05T07:37:38.322Z,24.80
2022-12-05T07:40:10.603Z,24.67
2022-12-05T07:42:40.413Z,26.43
2022-12-05T07:45:11.986Z,25.17
2022-12-05T07:47:41.994Z,24.50
2022-12-05T07:50:15.494Z,24.30
2022-12-05T07:52:47.974Z,23.47
2022-12-05T07:55:17.996Z,27.47
2022-12-05T07:57:47.950Z,25.07
2022-12-05T08:00:19.406Z,24.43
2022-12-05T08:02:49.376Z,25.30
2022-12-05T08:05:19.472Z,23.90
2022-12-05T08:07:52.126Z,22.30
2022-12-05T08:10:25.335Z,21.60
2022-12-05T08:12:55.262Z,22.23
2022-12-05T08:15:26.169Z,21.33
2022-12-05T08:17:56.159Z,21.50
2022-12-05T08:20:26.123Z,21.87
2022-12-05T08:22:58.652Z,21.20
2022-12-05T08:25:28.617Z,21.63
2022-12-05T08:27:59.534Z,21.07
2022-12-05T08:30:29.569Z,20.47
2022-12-05T08:32:59.591Z,21.70
2022-12-05T08:35:33.369Z,21.87
2022-12-05T08:38:08.938Z,21.70
2022-12-05T08:40:38.849Z,20.07
2022-12-05T08:43:08.762Z,20.43
2022-12-05T08:45:39.715Z,19.53
2022-12-05T08:48:09.870Z,20.37
2022-12-05T08:50:42.247Z,21.30
2022-12-05T08:53:15.846Z,20.13
2022-12-05T08:55:49.411Z,19.77
2022-12-05T08:58:21.398Z,20.37
2022-12-05T09:00:53.514Z,22.30
2022-12-05T09:03:27.318Z,21.83
2022-12-05T09:06:08.986Z,22.47
2022-12-05T09:08:48.843Z,22.20
2022-12-05T09:11:21.669Z,21.37
2022-12-05T09:13:57.728Z,20.70
2022-12-05T09:16:36.522Z,20.90
2022-12-05T09:19:13.428Z,21.30
2022-12-05T09:21:45.356Z,19.83
2022-12-05T09:24:18.013Z,21.30
2022-12-05T09:26:48.389Z,19.20
2022-12-05T09:29:21.523Z,20.57
2022-12-05T09:31:54.081Z,21.70
2022-12-05T09:34:26.098Z,21.87
2022-12-05T09:37:10.520Z,20.90
2022-12-05T09:39:50.395Z,20.07
2022-12-05T09:42:38.990Z,16.50
2022-12-05T09:45:18.364Z,18.70
2022-12-05T09:47:54.778Z,17.70
2022-12-05T09:50:28.794Z,17.60
2022-12-05T09:53:08.048Z,16.87
2022-12-05T09:55:47.133Z,17.60
2022-12-05T09:58:25.405Z,17.67
2022-12-05T10:01:01.284Z,17.60
2022-12-05T10:03:38.682Z,16.70
2022-12-05T10:06:17.791Z,16.90
2022-12-05T10:09:10.153Z,15.70
2022-12-05T10:11:50.378Z,16.37
2022-12-05T10:14:29.320Z,16.83
2022-12-05T10:17:05.467Z,16.40
2022-12-05T10:19:41.098Z,16.10
2022-12-05T10:22:20.441Z,15.10
2022-12-05T10:24:55.551Z,15.70
2022-12-05T10:27:40.003Z,16.00
2022-12-05T10:30:17.876Z,16.33
2022-12-05T10:32:55.731Z,16.57
2022-12-05T10:35:28.194Z,16.50
2022-12-05T10:38:01.855Z,15.30
2022-12-05T10:40:38.781Z,15.50
2022-12-05T10:43:16.329Z,15.80
2022-12-05T10:45:48.859Z,16.00
2022-12-05T10:48:25.253Z,15.50
2022-12-05T10:50:59.963Z,16.40
2022-12-05T10:53:38.591Z,15.70
2022-12-05T10:56:42.929Z,15.73
2022-12-05T10:59:21.057Z,15.20
2022-12-05T11:01:55.464Z,17.37
2022-12-05T11:04:31.917Z,19.23
2022-12-05T11:07:03.591Z,17.57
2022-12-05T11:09:35.963Z,14.77
2022-12-05T11:12:19.505Z,15.57
2022-12-05T11:15:04.090Z,17.30
2022-12-05T11:17:36.499Z,14.87
2022-12-05T11:20:27.955Z,15.90
2022-12-05T11:22:59.560Z,16.03
2022-12-05T11:25:34.104Z,15.20
2022-12-05T11:28:28.392Z,13.20
2022-12-05T11:31:06.241Z,15.57
2022-12-05T11:33:38.438Z,12.17
2022-12-05T11:36:16.239Z,33.00
2022-12-05T11:38:46.486Z,19.03
2022-12-05T11:41:42.913Z,13.77
2022-12-05T11:44:42.338Z,14.07
2022-12-05T11:47:24.895Z,14.20
2022-12-05T11:50:21.812Z,20.57
2022-12-05T11:53:04.739Z,9.87
2022-12-05T11:55:41.085Z,14.27
2022-12-05T11:58:37.025Z,11.80
2022-12-05T12:01:21.447Z,16.13
2022-12-05T12:04:18.171Z,16.47
2022-12-05T12:07:00.956Z,15.30
2022-12-05T12:09:42.774Z,10.30
2022-12-05T12:12:26.693Z,10.83
2022-12-05T12:15:07.275Z,10.90
2022-12-05T12:17:47.507Z,10.10
2022-12-05T12:20:38.093Z,10.77
2022-12-05T12:23:21.549Z,10.60
2022-12-05T12:26:09.161Z,8.93
2022-12-05T12:28:45.831Z,9.40
2022-12-05T12:31:30.847Z,9.83
2022-12-05T12:34:12.684Z,10.00
2022-12-05T12:36:51.967Z,8.83
2022-12-05T12:39:34.980Z,9.80
2022-12-05T12:42:20.844Z,10.10
2022-12-05T12:45:22.326Z,9.17
2022-12-05T12:48:08.372Z,9.00
2022-12-05T12:50:45.621Z,9.30
2022-12-05T12:53:44.986Z,8.90
2022-12-05T12:56:25.933Z,9.93
2022-12-05T12:59:06.571Z,9.47
2022-12-05T13:01:42.893Z,9.40
2022-12-05T13:04:17.485Z,9.20
2022-12-05T13:06:52.314Z,9.73
2022-12-05T13:09:30.242Z,9.87
2022-12-05T13:12:05.638Z,9.87
2022-12-05T13:14:40.127Z,10.17
2022-12-05T13:17:17.320Z,10.20
2022-12-05T13:19:51.379Z,10.13
2022-12-05T13:22:23.695Z,10.47
2022-12-05T13:24:57.584Z,11.10
2022-12-05T13:27:30.489Z,11.87
2022-12-05T13:30:03.828Z,11.73
2022-12-05T13:32:36.985Z,10.50
2022-12-05T13:35:13.212Z,9.83
2022-12-05T13:38:02.307Z,10.43
2022-12-05T13:40:49.143Z,11.07
2022-12-05T13:43:22.368Z,10.20
2022-12-05T13:46:06.906Z,9.97
2022-12-05T13:48:40.931Z,8.97
2022-12-05T13:51:16.730Z,10.20
2022-12-05T13:53:50.591Z,11.73
2022-12-05T13:56:49.220Z,11.13
2022-12-05T13:59:48.979Z,10.10
2022-12-05T14:02:51.874Z,11.07
2022-12-05T14:05:44.263Z,10.50
2022-12-05T14:08:56.038Z,10.70
2022-12-05T14:11:26.219Z,11.90
2022-12-05T14:14:04.238Z,12.10
2022-12-05T14:16:47.738Z,10.87
2022-12-05T14:19:55.942Z,9.87
2022-12-05T14:22:47.274Z,10.13
2022-12-05T14:25:31.246Z,8.90
2022-12-05T14:28:12.790Z,6.20
2022-12-05T14:30:56.949Z,6.53
2022-12-05T14:33:26.963Z,6.63
2022-12-05T14:35:57.382Z,6.60
2022-12-05T14:38:32.384Z,7.70
2022-12-05T14:41:15.989Z,7.67
2022-12-05T14:43:46.597Z,8.00
2022-12-05T14:46:28.230Z,8.00
2022-12-05T14:48:58.414Z,7.87
2022-12-05T14:51:48.704Z,8.70
2022-12-05T14:54:20.550Z,8.40
2022-12-05T14:56:55.035Z,7.77
2022-12-05T14:59:30.108Z,10.60
2022-12-05T15:02:05.276Z,10.37
2022-12-05T15:04:41.837Z,12.63
2022-12-05T15:07:15.126Z,11.30
2022-12-05T15:09:59.142Z,9.63
2022-12-05T15:12:40.014Z,9.70
2022-12-05T15:15:17.561Z,7.67
2022-12-05T15:17:54.962Z,7.50
2022-12-05T15:20:40.840Z,7.07
2022-12-05T15:23:41.004Z,6.73
2022-12-05T15:26:46.059Z,7.30
2022-12-05T15:29:18.431Z,8.27
2022-12-05T15:31:50.914Z,7.60
2022-12-05T15:34:29.747Z,7.80
2022-12-05T15:37:07.351Z,7.13
2022-12-05T15:39:53.961Z,7.50
2022-12-05T15:42:29.849Z,8.73
2022-12-05T15:45:17.613Z,8.00
2022-12-05T15:47:50.745Z,7.73
2022-12-05T15:50:33.637Z,7.70
2022-12-05T15:53:13.656Z,7.73
2022-12-05T15:55:49.958Z,9.60
2022-12-05T15:58:26.511Z,8.20
2022-12-05T16:01:01.411Z,8.47
2022-12-05T16:03:42.907Z,10.70
2022-12-05T16:06:20.387Z,9.70
2022-12-05T16:08:53.400Z,10.50
2022-12-05T16:11:28.941Z,13.07
2022-12-05T16:14:01.316Z,14.33
2022-12-05T16:16:34.542Z,18.10
2022-12-05T16:19:09.222Z,16.03
2022-12-05T16:21:44.235Z,16.97
2022-12-05T16:24:21.637Z,13.60
2022-12-05T16:27:01.242Z,12.10
2022-12-05T16:29:35.598Z,13.10
2022-12-05T16:32:09.844Z,11.30
2022-12-05T16:34:39.875Z,9.20
2022-12-05T16:37:21.613Z,9.20
2022-12-05T16:39:53.919Z,8.60
2022-12-05T16:42:28.553Z,9.27
2022-12-05T16:45:05.055Z,9.07
2022-12-05T16:47:57.863Z,9.83
2022-12-05T16:50:33.263Z,10.90
2022-12-05T16:53:19.146Z,9.70
2022-12-05T16:55:52.494Z,9.13
2022-12-05T16:58:27.700Z,9.33
2022-12-05T17:01:03.334Z,9.40
2022-12-05T17:03:35.678Z,9.97
2022-12-05T17:06:06.289Z,9.83
2022-12-05T17:08:39.886Z,9.23
2022-12-05T17:11:20.134Z,10.00
2022-12-05T17:13:51.327Z,8.00
2022-12-05T17:16:22.574Z,9.73
2022-12-05T17:18:52.696Z,8.80
2022-12-05T17:21:24.576Z,9.77
2022-12-05T17:23:58.299Z,8.77
2022-12-05T17:26:30.254Z,9.73
2022-12-05T17:29:00.216Z,8.87
2022-12-05T17:31:30.185Z,8.50
2022-12-05T17:34:00.134Z,8.20
2022-12-05T17:36:30.049Z,9.23
2022-12-05T17:39:03.604Z,10.07
2022-12-05T17:41:33.545Z,10.50
2022-12-05T17:44:03.580Z,10.43
2022-12-05T17:46:33.630Z,13.37
2022-12-05T17:49:03.817Z,12.30
2022-12-05T17:51:34.138Z,10.73
2022-12-05T17:54:07.850Z,10.23
2022-12-05T17:56:37.809Z,10.40
2022-12-05T17:59:08.702Z,10.27
2022-12-05T18:01:42.403Z,9.67
2022-12-05T18:04:12.292Z,9.67
2022-12-05T18:06:42.270Z,9.73
2022-12-05T18:09:14.863Z,9.73
2022-12-05T18:11:44.724Z,9.87
2022-12-05T18:14:14.641Z,10.43
2022-12-05T18:16:44.597Z,9.47
2022-12-05T18:19:14.539Z,10.70
2022-12-05T18:21:47.503Z,9.90
2022-12-05T18:24:20.206Z,10.37
2022-12-05T18:26:50.148Z,10.10
2022-12-05T18:29:20.041Z,9.70
2022-12-05T18:31:49.995Z,10.10
2022-12-05T18:34:20.251Z,9.50
2022-12-05T18:36:51.144Z,9.50
2022-12-05T18:39:26.157Z,10.37
2022-12-05T18:41:56.063Z,9.80
2022-12-05T18:44:26.480Z,10.87
2022-12-05T18:46:56.399Z,10.63
2022-12-05T18:49:26.914Z,10.17
2022-12-05T18:51:57.762Z,11.60
2022-12-05T18:54:30.306Z,11.40
2022-12-05T18:57:00.154Z,10.83
2022-12-05T18:59:30.759Z,12.60
2022-12-05T19:02:00.952Z,17.30
2022-12-05T19:04:31.649Z,12.67
2022-12-05T19:07:03.260Z,12.87
2022-12-05T19:09:35.987Z,14.80
2022-12-05T19:12:06.102Z,12.00
2022-12-05T19:14:37.853Z,12.70
2022-12-05T19:17:07.847Z,12.13
2022-12-05T19:19:37.803Z,11.30
2022-12-05T19:22:07.708Z,11.63
2022-12-05T19:24:40.230Z,10.03
2022-12-05T19:27:11.133Z,11.83
2022-12-05T19:29:41.044Z,10.20
2022-12-05T19:32:10.975Z,9.67
2022-12-05T19:34:41.011Z,8.83
2022-12-05T19:37:11.956Z,9.30
2022-12-05T19:39:45.061Z,12.93
2022-12-05T19:42:14.903Z,9.47
2022-12-05T19:44:45.833Z,9.23
2022-12-05T19:47:15.676Z,8.33
2022-12-05T19:49:45.606Z,8.87
2022-12-05T19:52:18.011Z,9.03
2022-12-05T19:54:50.700Z,8.83
2022-12-05T19:57:20.810Z,9.03
2022-12-05T19:59:51.755Z,9.20
2022-12-05T20:02:21.666Z,8.90
2022-12-05T20:04:51.636Z,9.03
2022-12-05T20:07:21.531Z,7.93
2022-12-05T20:09:54.001Z,8.33
2022-12-05T20:12:23.915Z,7.60
2022-12-05T20:14:53.988Z,8.57
2022-12-05T20:17:23.883Z,7.23
2022-12-05T20:19:53.801Z,7.63
2022-12-05T20:22:23.681Z,8.00
2022-12-05T20:24:56.234Z,8.13
2022-12-05T20:27:27.496Z,7.10
2022-12-05T20:29:57.518Z,7.97
2022-12-05T20:32:27.814Z,8.80
2022-12-05T20:34:58.719Z,8.60
2022-12-05T20:37:31.164Z,7.63
2022-12-05T20:40:07.011Z,7.33
2022-12-05T20:42:38.905Z,7.70
2022-12-05T20:45:12.704Z,7.07
2022-12-05T20:47:43.031Z,7.63
2022-12-05T20:50:15.911Z,7.90
2022-12-05T20:52:47.082Z,7.30
2022-12-05T20:55:20.695Z,8.70
2022-12-05T20:57:50.577Z,8.30
2022-12-05T21:00:21.555Z,7.87
2022-12-05T21:02:52.515Z,6.83
2022-12-05T21:05:24.186Z,6.63
2022-12-05T21:07:54.081Z,6.60
2022-12-05T21:10:30.166Z,7.30
2022-12-05T21:12:59.991Z,8.33
2022-12-05T21:15:30.838Z,7.33
2022-12-05T21:18:04.410Z,7.13
2022-12-05T21:20:41.925Z,7.70
2022-12-05T21:23:12.343Z,8.20
2022-12-05T21:25:44.804Z,7.90
2022-12-05T21:28:14.659Z,7.40
2022-12-05T21:30:44.636Z,7.73
2022-12-05T21:33:14.756Z,8.60
2022-12-05T21:35:44.607Z,8.70
2022-12-05T21:38:16.497Z,7.60
2022-12-05T21:40:49.018Z,8.10
2022-12-05T21:43:19.576Z,8.60
2022-12-05T21:45:53.921Z,8.93
2022-12-05T21:48:25.578Z,8.50
2022-12-05T21:50:58.101Z,9.63
2022-12-05T21:53:31.410Z,9.00
2022-12-05T21:56:06.017Z,10.87
2022-12-05T21:58:42.092Z,11.03
2022-12-05T22:01:19.045Z,10.80
2022-12-05T22:03:49.493Z,11.60
2022-12-05T22:06:21.431Z,11.00
2022-12-05T22:08:51.317Z,10.93
2022-12-05T22:11:28.101Z,11.40
2022-12-05T22:13:58.041Z,9.97
2022-12-05T22:16:32.779Z,10.50
2022-12-05T22:19:03.932Z,9.90
2022-12-05T22:21:34.537Z,9.60
2022-12-05T22:24:04.790Z,8.67
2022-12-05T22:26:37.308Z,8.90
2022-12-05T22:29:10.922Z,9.10
2022-12-05T22:31:42.030Z,10.53
2022-12-05T22:34:15.437Z,10.40
2022-12-05T22:36:45.333Z,10.20
2022-12-05T22:39:18.409Z,8.37
2022-12-05T22:41:50.876Z,7.90
2022-12-05T22:44:22.026Z,8.47
2022-12-05T22:46:53.344Z,8.90
2022-12-05T22:49:25.319Z,8.93
2022-12-05T22:51:58.466Z,8.53
2022-12-05T22:54:30.298Z,8.07
2022-12-05T22:57:03.019Z,9.10
2022-12-05T22:59:36.469Z,9.33
2022-12-05T23:02:06.447Z,9.97
2022-12-05T23:04:36.438Z,9.23
2022-12-05T23:07:06.411Z,9.40
2022-12-05T23:09:36.319Z,9.67
2022-12-05T23:12:09.652Z,9.33
2022-12-05T23:14:39.750Z,9.60
2022-12-05T23:17:11.875Z,9.50
2022-12-05T23:19:45.544Z,10.73
2022-12-05T23:22:16.623Z,10.80
2022-12-05T23:24:47.677Z,10.37
2022-12-05T23:27:20.638Z,10.13
2022-12-05T23:29:50.599Z,10.00
2022-12-05T23:32:21.630Z,10.30
2022-12-05T23:34:52.593Z,10.67
2022-12-05T23:37:26.629Z,10.17
2022-12-05T23:39:56.858Z,10.67
2022-12-05T23:42:33.203Z,9.30
2022-12-05T23:45:03.246Z,9.87
2022-12-05T23:47:34.320Z,10.37
2022-12-05T23:50:04.531Z,10.77
2022-12-05T23:52:34.551Z,11.37
2022-12-05T23:55:06.864Z,12.33
2022-12-05T23:57:39.503Z,12.20
